sim
Sign-in with your pilot id or email,
or register
Callsign
Passwort

Schedule Details

Flight Number: RYR9086 (1)
Departure: Alicante Airport (LEAL) at 11:15
Arrival: Gothenburg Landvetter Airport (ESGG) at 15:00
Route: Ryanair Passenger Schedule. Enter filed route here before submitting Pirep.

Weather Information
Getting current METAR information for LEAL 200230Z 32005KT CAVOK 16/13 Q1017 NOSIG
Getting current METAR information for ESGG 200250Z 14010KT 9999 SCT038 04/03 Q1015

Schedule Frequency

Route Map